createdAt,value
2022-11-26T00:00:38.553Z,6.92
2022-11-26T00:01:42.711Z,6.94
2022-11-26T00:02:46.979Z,6.96
2022-11-26T00:03:51.072Z,6.96
2022-11-26T00:04:55.304Z,6.96
2022-11-26T00:05:59.549Z,6.96
2022-11-26T00:07:03.798Z,6.97
2022-11-26T00:08:07.943Z,6.99
2022-11-26T00:09:12.206Z,7.00
2022-11-26T00:10:16.351Z,7.01
2022-11-26T00:11:20.561Z,7.02
2022-11-26T00:12:24.746Z,7.03
2022-11-26T00:13:28.953Z,7.03
2022-11-26T00:14:33.265Z,7.04
2022-11-26T00:15:37.532Z,7.05
2022-11-26T00:16:41.788Z,7.06
2022-11-26T00:17:45.877Z,7.06
2022-11-26T00:18:50.032Z,7.06
2022-11-26T00:19:54.332Z,7.07
2022-11-26T00:20:58.543Z,7.06
2022-11-26T00:22:02.668Z,7.06
2022-11-26T00:23:06.830Z,7.07
2022-11-26T00:24:11.018Z,7.07
2022-11-26T00:25:15.238Z,7.07
2022-11-26T00:26:19.427Z,7.07
2022-11-26T00:27:23.622Z,7.06
2022-11-26T00:28:27.894Z,7.06
2022-11-26T00:29:32.021Z,7.05
2022-11-26T00:30:36.292Z,7.05
2022-11-26T00:31:40.432Z,7.05
2022-11-26T00:32:44.599Z,7.05
2022-11-26T00:33:48.829Z,7.06
2022-11-26T00:34:53.096Z,7.06
2022-11-26T00:35:57.222Z,7.06
2022-11-26T00:37:01.423Z,7.06
2022-11-26T00:38:05.706Z,7.06
2022-11-26T00:39:09.839Z,7.06
2022-11-26T00:40:14.131Z,7.07
2022-11-26T00:41:18.349Z,7.08
2022-11-26T00:42:22.487Z,7.09
2022-11-26T00:43:26.833Z,7.07
2022-11-26T00:44:30.911Z,7.04
2022-11-26T00:45:35.175Z,7.02
2022-11-26T00:46:39.300Z,6.99
2022-11-26T00:47:43.505Z,6.98
2022-11-26T00:48:47.671Z,6.97
2022-11-26T00:49:51.857Z,6.98
2022-11-26T00:50:56.017Z,6.99
2022-11-26T00:52:00.317Z,7.01
2022-11-26T00:53:04.445Z,7.02
2022-11-26T00:54:08.687Z,7.04
2022-11-26T00:55:12.864Z,7.05
2022-11-26T00:56:17.046Z,7.08
2022-11-26T00:57:21.313Z,7.09
2022-11-26T00:58:25.453Z,7.10
2022-11-26T00:59:29.755Z,7.10
2022-11-26T01:00:33.850Z,7.10
2022-11-26T01:01:38.080Z,7.10
2022-11-26T01:02:42.363Z,7.10
2022-11-26T01:03:46.439Z,7.11
2022-11-26T01:04:50.642Z,7.12
2022-11-26T01:05:54.936Z,7.11
2022-11-26T01:06:59.035Z,7.10
2022-11-26T01:08:03.270Z,7.10
2022-11-26T01:09:07.376Z,7.11
2022-11-26T01:10:11.579Z,7.13
2022-11-26T01:11:15.788Z,7.15
2022-11-26T01:12:20.073Z,7.16
2022-11-26T01:13:24.272Z,7.17
2022-11-26T01:14:28.443Z,7.18
2022-11-26T01:15:32.569Z,7.20
2022-11-26T01:16:36.820Z,7.20
2022-11-26T01:17:41.088Z,7.20
2022-11-26T01:18:45.224Z,7.20
2022-11-26T01:19:49.450Z,7.20
2022-11-26T01:20:53.603Z,7.20
2022-11-26T01:21:57.791Z,7.19
2022-11-26T01:23:01.934Z,7.20
2022-11-26T01:24:06.204Z,7.21
2022-11-26T01:25:10.352Z,7.21
2022-11-26T01:26:14.517Z,7.22
2022-11-26T01:27:18.745Z,7.22
2022-11-26T01:28:23.028Z,7.22
2022-11-26T01:29:27.193Z,7.23
2022-11-26T01:30:31.362Z,7.23
2022-11-26T01:31:35.595Z,7.24
2022-11-26T01:32:39.752Z,7.25
2022-11-26T01:33:43.925Z,7.26
2022-11-26T01:34:48.115Z,7.26
2022-11-26T01:35:52.288Z,7.27
2022-11-26T01:36:57.463Z,7.27
2022-11-26T01:38:01.334Z,7.27
2022-11-26T01:39:05.501Z,7.27
2022-11-26T01:40:09.709Z,7.26
2022-11-26T01:41:13.975Z,7.26
2022-11-26T01:42:18.089Z,7.26
2022-11-26T01:43:22.236Z,7.26
2022-11-26T01:44:26.331Z,7.27
2022-11-26T01:45:30.732Z,7.28
2022-11-26T01:46:34.811Z,7.28
2022-11-26T01:47:39.093Z,7.29
2022-11-26T01:48:43.237Z,7.29
2022-11-26T01:49:47.386Z,7.29
2022-11-26T01:50:51.681Z,7.30
2022-11-26T01:51:55.953Z,7.30
2022-11-26T01:53:00.074Z,7.31
2022-11-26T01:54:04.242Z,7.31
2022-11-26T01:55:08.546Z,7.32
2022-11-26T01:56:12.774Z,7.33
2022-11-26T01:57:17.051Z,7.34
2022-11-26T01:58:21.158Z,7.36
2022-11-26T01:59:25.420Z,7.36
2022-11-26T02:00:29.662Z,7.37
2022-11-26T02:01:33.930Z,7.38
2022-11-26T02:02:38.101Z,7.38
2022-11-26T02:03:42.266Z,7.39
2022-11-26T02:04:46.448Z,7.39
2022-11-26T02:05:50.664Z,7.40
2022-11-26T02:06:54.859Z,7.40
2022-11-26T02:07:59.040Z,7.40
2022-11-26T02:09:03.350Z,7.41
2022-11-26T02:10:07.593Z,7.41
2022-11-26T02:11:11.738Z,7.41
2022-11-26T02:12:15.939Z,7.41
2022-11-26T02:13:20.212Z,7.41
2022-11-26T02:14:24.329Z,7.41
2022-11-26T02:15:28.541Z,7.41
2022-11-26T02:16:32.919Z,7.42
2022-11-26T02:17:36.839Z,7.42
2022-11-26T02:18:41.195Z,7.42
2022-11-26T02:19:45.345Z,7.42
2022-11-26T02:20:49.533Z,7.43
2022-11-26T02:21:53.859Z,7.43
2022-11-26T02:22:58.078Z,7.43
2022-11-26T02:24:02.330Z,7.43
2022-11-26T02:25:06.458Z,7.44
2022-11-26T02:26:10.683Z,7.44
2022-11-26T02:27:14.862Z,7.44
2022-11-26T02:28:19.154Z,7.44
2022-11-26T02:29:23.365Z,7.44
2022-11-26T02:30:27.522Z,7.42
2022-11-26T02:31:31.825Z,7.41
2022-11-26T02:32:36.117Z,7.40
2022-11-26T02:33:40.221Z,7.41
2022-11-26T02:34:44.854Z,7.42
2022-11-26T02:35:48.624Z,7.43
2022-11-26T02:36:52.813Z,7.44
2022-11-26T02:37:57.066Z,7.45
2022-11-26T02:39:01.317Z,7.46
2022-11-26T02:40:05.564Z,7.46
2022-11-26T02:41:09.807Z,7.47
2022-11-26T02:42:13.944Z,7.48
2022-11-26T02:43:18.116Z,7.49
2022-11-26T02:44:22.371Z,7.50
2022-11-26T02:45:26.764Z,7.51
2022-11-26T02:46:30.785Z,7.52
2022-11-26T02:47:35.002Z,7.52
2022-11-26T02:48:39.157Z,7.53
2022-11-26T02:49:46.337Z,7.53
2022-11-26T02:50:49.568Z,7.53
2022-11-26T02:51:53.855Z,7.54
2022-11-26T02:52:58.073Z,7.54
2022-11-26T02:54:02.240Z,7.54
2022-11-26T02:55:06.495Z,7.55
2022-11-26T02:56:10.675Z,7.55
2022-11-26T02:57:14.824Z,7.56
2022-11-26T02:58:19.069Z,7.56
2022-11-26T02:59:23.204Z,7.57
2022-11-26T03:00:27.365Z,7.57
2022-11-26T03:01:31.765Z,7.58
2022-11-26T03:02:35.892Z,7.58
2022-11-26T03:03:40.099Z,7.58
2022-11-26T03:04:44.230Z,7.59
2022-11-26T03:05:48.450Z,7.57
2022-11-26T03:06:52.624Z,7.54
2022-11-26T03:07:56.945Z,7.52
2022-11-26T03:09:01.048Z,7.50
2022-11-26T03:10:05.336Z,7.48
2022-11-26T03:11:09.516Z,7.48
2022-11-26T03:12:13.829Z,7.48
2022-11-26T03:13:17.948Z,7.47
2022-11-26T03:14:22.207Z,7.46
2022-11-26T03:15:26.426Z,7.45
2022-11-26T03:16:30.732Z,7.46
2022-11-26T03:17:34.819Z,7.47
2022-11-26T03:18:39.088Z,7.47
2022-11-26T03:19:43.197Z,7.48
2022-11-26T03:20:50.070Z,7.50
2022-11-26T03:21:51.727Z,7.51
2022-11-26T03:22:55.897Z,7.52
2022-11-26T03:24:00.214Z,7.53
2022-11-26T03:25:04.259Z,7.55
2022-11-26T03:26:08.525Z,7.56
2022-11-26T03:27:12.645Z,7.58
2022-11-26T03:28:16.914Z,7.59
2022-11-26T03:29:21.070Z,7.60
2022-11-26T03:30:25.403Z,7.60
2022-11-26T03:31:29.606Z,7.61
2022-11-26T03:32:33.724Z,7.60
2022-11-26T03:33:37.920Z,7.61
2022-11-26T03:34:42.202Z,7.62
2022-11-26T03:35:46.376Z,7.63
2022-11-26T03:36:50.544Z,7.64
2022-11-26T03:37:54.843Z,7.66
2022-11-26T03:38:59.093Z,7.67
2022-11-26T03:40:03.292Z,7.68
2022-11-26T03:41:07.420Z,7.69
2022-11-26T03:42:11.608Z,7.71
2022-11-26T03:43:15.908Z,7.72
2022-11-26T03:44:20.072Z,7.73
2022-11-26T03:45:24.252Z,7.74
2022-11-26T03:46:28.531Z,7.75
2022-11-26T03:47:32.791Z,7.75
2022-11-26T03:48:36.930Z,7.75
2022-11-26T03:49:41.109Z,7.75
2022-11-26T03:50:45.328Z,7.74
2022-11-26T03:51:49.576Z,7.74
2022-11-26T03:52:53.743Z,7.73
2022-11-26T03:53:58.010Z,7.73
2022-11-26T03:55:02.175Z,7.73
2022-11-26T03:56:06.481Z,7.74
2022-11-26T03:57:10.632Z,7.74
2022-11-26T03:58:14.894Z,7.75
2022-11-26T03:59:19.104Z,7.77
2022-11-26T04:00:23.352Z,7.78
2022-11-26T04:01:27.632Z,7.79
2022-11-26T04:02:31.796Z,7.81
2022-11-26T04:03:36.031Z,7.82
2022-11-26T04:04:40.465Z,7.84
2022-11-26T04:05:44.341Z,7.85
2022-11-26T04:06:48.630Z,7.87
2022-11-26T04:07:52.922Z,7.88
2022-11-26T04:08:57.020Z,7.89
2022-11-26T04:10:01.238Z,7.90
2022-11-26T04:11:05.434Z,7.91
2022-11-26T04:12:09.602Z,7.91
2022-11-26T04:13:13.776Z,7.91
2022-11-26T04:14:17.955Z,7.91
2022-11-26T04:15:22.232Z,7.92
2022-11-26T04:16:26.409Z,7.92
2022-11-26T04:17:30.605Z,7.93
2022-11-26T04:18:34.853Z,7.93
2022-11-26T04:19:38.995Z,7.93
2022-11-26T04:20:43.178Z,7.94
2022-11-26T04:21:47.472Z,7.94
2022-11-26T04:22:51.635Z,7.95
2022-11-26T04:23:55.879Z,7.95
2022-11-26T04:24:59.988Z,7.95
2022-11-26T04:26:04.199Z,7.96
2022-11-26T04:27:08.402Z,7.96
2022-11-26T04:28:12.706Z,7.97
2022-11-26T04:29:16.923Z,7.98
2022-11-26T04:30:21.169Z,7.99
2022-11-26T04:31:25.444Z,7.99
2022-11-26T04:32:29.567Z,8.00
2022-11-26T04:33:33.861Z,8.01
2022-11-26T04:34:38.247Z,8.01
2022-11-26T04:35:42.291Z,8.02
2022-11-26T04:36:46.436Z,8.02
2022-11-26T04:37:50.768Z,8.03
2022-11-26T04:38:54.883Z,8.03
2022-11-26T04:39:59.171Z,8.03
2022-11-26T04:41:03.325Z,8.03
2022-11-26T04:42:07.600Z,8.02
2022-11-26T04:43:11.816Z,8.02
2022-11-26T04:44:16.042Z,8.03
2022-11-26T04:45:20.190Z,8.03
2022-11-26T04:46:24.285Z,8.03
2022-11-26T04:47:28.545Z,8.03
2022-11-26T04:48:32.853Z,8.03
2022-11-26T04:49:37.013Z,8.03
2022-11-26T04:50:41.211Z,8.03
2022-11-26T04:51:45.419Z,8.03
2022-11-26T04:52:49.705Z,8.03
2022-11-26T04:53:55.913Z,8.04
2022-11-26T04:54:58.043Z,8.04
2022-11-26T04:56:02.338Z,8.04
2022-11-26T04:57:06.461Z,8.04
2022-11-26T04:58:10.642Z,8.04
2022-11-26T04:59:14.851Z,8.04
2022-11-26T05:00:19.060Z,8.04
2022-11-26T05:01:23.268Z,8.04
2022-11-26T05:02:27.489Z,8.05
2022-11-26T05:03:31.585Z,8.05
2022-11-26T05:04:35.893Z,8.06
2022-11-26T05:05:39.984Z,8.07
2022-11-26T05:06:44.208Z,8.07
2022-11-26T05:07:48.415Z,8.08
2022-11-26T05:08:52.566Z,8.08
2022-11-26T05:09:56.843Z,8.09
2022-11-26T05:11:01.013Z,8.09
2022-11-26T05:12:05.215Z,8.09
2022-11-26T05:13:09.398Z,8.08
2022-11-26T05:14:13.614Z,8.09
2022-11-26T05:15:17.821Z,8.09
2022-11-26T05:16:22.209Z,8.09
2022-11-26T05:17:26.240Z,8.09
2022-11-26T05:18:30.586Z,8.10
2022-11-26T05:19:34.816Z,8.10
2022-11-26T05:20:38.949Z,8.10
2022-11-26T05:21:43.226Z,8.10
2022-11-26T05:22:47.358Z,8.10
2022-11-26T05:23:51.457Z,8.11
2022-11-26T05:24:55.811Z,8.11
2022-11-26T05:25:59.973Z,8.12
2022-11-26T05:27:04.143Z,8.12
2022-11-26T05:28:08.407Z,8.12
2022-11-26T05:29:12.524Z,8.12
2022-11-26T05:30:16.728Z,8.12
2022-11-26T05:31:21.053Z,8.12
2022-11-26T05:32:25.273Z,8.13
2022-11-26T05:33:29.438Z,8.13
2022-11-26T05:34:33.662Z,8.13
2022-11-26T05:35:37.784Z,8.13
2022-11-26T05:36:41.975Z,8.13
2022-11-26T05:37:46.204Z,8.12
2022-11-26T05:38:50.394Z,8.13
2022-11-26T05:39:54.624Z,8.13
2022-11-26T05:40:58.909Z,8.13
2022-11-26T05:42:08.841Z,8.12
2022-11-26T05:43:07.391Z,8.12
2022-11-26T05:44:11.671Z,8.12
2022-11-26T05:45:15.881Z,8.12
2022-11-26T05:46:20.091Z,8.12
2022-11-26T05:47:24.294Z,8.12
2022-11-26T05:48:28.578Z,8.12
2022-11-26T05:49:32.693Z,8.12
2022-11-26T05:50:36.980Z,8.11
2022-11-26T05:51:41.135Z,8.12
2022-11-26T05:52:45.311Z,8.11
2022-11-26T05:53:49.519Z,8.11
2022-11-26T05:54:53.742Z,8.10
2022-11-26T05:55:57.938Z,8.10
2022-11-26T05:57:02.130Z,8.10
2022-11-26T05:58:06.330Z,8.10
2022-11-26T05:59:10.492Z,8.11
2022-11-26T06:00:14.676Z,8.12
2022-11-26T06:01:18.873Z,8.13
2022-11-26T06:02:23.250Z,8.14
2022-11-26T06:03:27.571Z,8.14
2022-11-26T06:04:31.690Z,8.15
2022-11-26T06:05:35.822Z,8.15
2022-11-26T06:06:39.994Z,8.16
2022-11-26T06:07:44.968Z,8.16
2022-11-26T06:08:48.548Z,8.16
2022-11-26T06:09:52.789Z,8.17
2022-11-26T06:10:56.922Z,8.18
2022-11-26T06:12:01.039Z,8.18
2022-11-26T06:13:05.378Z,8.17
2022-11-26T06:14:09.609Z,8.16
2022-11-26T06:15:13.827Z,8.16
2022-11-26T06:16:18.135Z,8.15
2022-11-26T06:17:22.176Z,8.15
2022-11-26T06:18:27.292Z,8.15
2022-11-26T06:19:31.118Z,8.15
2022-11-26T06:20:35.434Z,8.15
2022-11-26T06:21:39.439Z,8.15
2022-11-26T06:22:43.672Z,8.16
2022-11-26T06:23:55.930Z,8.15
2022-11-26T06:24:52.057Z,8.14
2022-11-26T06:25:56.229Z,8.14
2022-11-26T06:27:00.415Z,8.14
2022-11-26T06:28:04.596Z,8.13
2022-11-26T06:29:09.687Z,8.13
2022-11-26T06:30:13.579Z,8.12
2022-11-26T06:31:17.783Z,8.12
2022-11-26T06:32:21.931Z,8.12
2022-11-26T06:33:26.153Z,8.12
2022-11-26T06:34:30.335Z,8.13
2022-11-26T06:35:34.517Z,8.13
2022-11-26T06:36:38.768Z,8.14
2022-11-26T06:37:43.047Z,8.15
2022-11-26T06:38:47.274Z,8.15
2022-11-26T06:39:51.413Z,8.16
2022-11-26T06:40:55.708Z,8.17
2022-11-26T06:41:59.847Z,8.16
2022-11-26T06:43:04.044Z,8.16
2022-11-26T06:44:08.142Z,8.15
2022-11-26T06:45:12.398Z,8.13
2022-11-26T06:46:16.684Z,8.12
2022-11-26T06:47:20.780Z,8.11
2022-11-26T06:48:24.981Z,8.09
2022-11-26T06:49:29.199Z,8.07
2022-11-26T06:50:33.391Z,8.05
2022-11-26T06:51:37.576Z,8.04
2022-11-26T06:52:41.878Z,8.03
2022-11-26T06:53:45.979Z,8.03
2022-11-26T06:54:50.190Z,8.03
2022-11-26T06:55:54.351Z,8.04
2022-11-26T06:56:58.507Z,8.05
2022-11-26T06:58:02.774Z,8.06
2022-11-26T06:59:06.936Z,8.07
2022-11-26T07:00:11.119Z,8.08
2022-11-26T07:01:15.392Z,8.10
2022-11-26T07:02:19.562Z,8.11
2022-11-26T07:03:25.540Z,8.12
2022-11-26T07:04:28.019Z,8.14
2022-11-26T07:05:32.126Z,8.15
2022-11-26T07:06:36.352Z,8.15
2022-11-26T07:07:40.587Z,8.15
2022-11-26T07:08:44.717Z,8.15
2022-11-26T07:09:48.864Z,8.15
2022-11-26T07:10:53.079Z,8.16
2022-11-26T07:11:57.317Z,8.16
2022-11-26T07:13:01.378Z,8.16
2022-11-26T07:14:05.655Z,8.16
2022-11-26T07:15:09.856Z,8.17
2022-11-26T07:16:14.171Z,8.16
2022-11-26T07:17:18.333Z,8.15
2022-11-26T07:18:22.510Z,8.14
2022-11-26T07:19:26.794Z,8.14
2022-11-26T07:20:30.971Z,8.13
2022-11-26T07:21:35.264Z,8.12
2022-11-26T07:22:39.298Z,8.12
2022-11-26T07:23:43.618Z,8.12
2022-11-26T07:24:47.794Z,8.12
2022-11-26T07:25:52.047Z,8.12
2022-11-26T07:26:56.194Z,8.11
2022-11-26T07:28:00.464Z,8.11
2022-11-26T07:29:04.597Z,8.10
2022-11-26T07:30:08.807Z,8.10
2022-11-26T07:31:16.482Z,8.09
2022-11-26T07:32:17.270Z,8.09
2022-11-26T07:33:21.514Z,8.09
2022-11-26T07:34:25.689Z,8.10
2022-11-26T07:35:29.946Z,8.09
2022-11-26T07:36:34.087Z,8.07
2022-11-26T07:37:38.294Z,8.07
2022-11-26T07:38:42.452Z,8.06
2022-11-26T07:39:46.638Z,8.05
2022-11-26T07:40:50.854Z,8.03
2022-11-26T07:41:55.023Z,8.02
2022-11-26T07:42:59.197Z,8.01
2022-11-26T07:44:03.409Z,8.02
2022-11-26T07:45:07.710Z,8.02
2022-11-26T07:46:11.940Z,8.04
2022-11-26T07:47:16.153Z,8.04
2022-11-26T07:48:20.398Z,8.05
2022-11-26T07:49:24.656Z,8.05
2022-11-26T07:50:28.816Z,8.05
2022-11-26T07:51:32.950Z,8.05
2022-11-26T07:52:37.146Z,8.06
2022-11-26T07:53:41.322Z,8.06
2022-11-26T07:54:45.540Z,8.06
2022-11-26T07:55:49.750Z,8.05
2022-11-26T07:56:53.890Z,8.05
2022-11-26T07:57:58.204Z,8.03
2022-11-26T07:59:02.342Z,8.03
2022-11-26T08:00:06.553Z,8.03
2022-11-26T08:01:10.697Z,8.04
2022-11-26T08:02:15.025Z,8.04
2022-11-26T08:03:19.130Z,8.05
2022-11-26T08:04:23.270Z,8.04
2022-11-26T08:05:27.543Z,8.04
2022-11-26T08:06:31.787Z,8.03
2022-11-26T08:07:35.960Z,8.03
2022-11-26T08:08:40.211Z,8.03
2022-11-26T08:09:44.382Z,8.02
2022-11-26T08:10:48.654Z,8.01
2022-11-26T08:11:52.818Z,8.00
2022-11-26T08:12:57.050Z,8.00
2022-11-26T08:14:01.233Z,8.00
2022-11-26T08:15:05.424Z,8.00
2022-11-26T08:16:09.705Z,8.00
2022-11-26T08:17:13.937Z,8.00
2022-11-26T08:18:18.084Z,7.98
2022-11-26T08:19:22.359Z,7.95
2022-11-26T08:20:29.004Z,7.92
2022-11-26T08:21:30.693Z,7.91
2022-11-26T08:22:34.948Z,7.90
2022-11-26T08:23:39.093Z,7.89
2022-11-26T08:24:46.503Z,7.88
2022-11-26T08:26:13.976Z,7.87
2022-11-26T08:26:53.944Z,7.86
2022-11-26T08:27:58.109Z,7.86
2022-11-26T08:29:02.332Z,7.85
2022-11-26T08:30:06.505Z,7.84
2022-11-26T08:31:10.776Z,7.83
2022-11-26T08:32:14.875Z,7.83
2022-11-26T08:33:19.086Z,7.85
2022-11-26T08:34:23.260Z,7.86
2022-11-26T08:35:51.149Z,7.87
2022-11-26T08:36:31.825Z,7.89
2022-11-26T08:37:35.979Z,7.91
2022-11-26T08:38:40.293Z,7.93
2022-11-26T08:39:44.439Z,7.95
2022-11-26T08:40:48.642Z,7.97
2022-11-26T08:41:52.978Z,7.98
2022-11-26T08:42:57.069Z,7.99
2022-11-26T08:44:08.787Z,8.00
2022-11-26T08:45:05.483Z,8.01
2022-11-26T08:46:09.740Z,8.01
2022-11-26T08:47:13.893Z,8.02
2022-11-26T08:48:18.040Z,8.04
2022-11-26T08:49:22.235Z,8.05
2022-11-26T08:50:26.614Z,8.07
2022-11-26T08:51:30.719Z,8.08
2022-11-26T08:52:34.900Z,8.10
2022-11-26T08:53:39.086Z,8.12
2022-11-26T08:54:45.369Z,8.12
2022-11-26T08:56:00.211Z,8.13
2022-11-26T08:56:51.840Z,8.14
2022-11-26T08:57:56.003Z,8.14
2022-11-26T08:59:00.192Z,8.15
2022-11-26T09:00:04.439Z,8.16
2022-11-26T09:01:08.714Z,8.17
2022-11-26T09:02:18.469Z,8.18
2022-11-26T09:03:17.200Z,8.19
2022-11-26T09:04:21.382Z,8.20
2022-11-26T09:05:25.548Z,8.20
2022-11-26T09:06:29.774Z,8.21
2022-11-26T09:07:34.058Z,8.22
2022-11-26T09:08:38.126Z,8.22
2022-11-26T09:09:42.315Z,8.23
2022-11-26T09:10:46.497Z,8.24
2022-11-26T09:11:50.722Z,8.24
2022-11-26T09:12:54.932Z,8.24
2022-11-26T09:13:59.148Z,8.25
2022-11-26T09:15:03.461Z,8.25
2022-11-26T09:16:07.617Z,8.24
2022-11-26T09:17:11.820Z,8.24
2022-11-26T09:18:15.961Z,8.24
2022-11-26T09:19:20.170Z,8.25
2022-11-26T09:20:24.398Z,8.24
2022-11-26T09:21:28.595Z,8.22
2022-11-26T09:22:32.776Z,8.19
2022-11-26T09:23:37.081Z,8.18
2022-11-26T09:24:41.378Z,8.17
2022-11-26T09:25:45.410Z,8.18
2022-11-26T09:26:49.712Z,8.18
2022-11-26T09:27:53.860Z,8.18
2022-11-26T09:28:58.056Z,8.19
2022-11-26T09:30:02.232Z,8.20
2022-11-26T09:31:06.398Z,8.20
2022-11-26T09:32:30.953Z,8.20
2022-11-26T09:33:14.835Z,8.21
2022-11-26T09:34:19.041Z,8.20
2022-11-26T09:35:23.261Z,8.18
2022-11-26T09:36:27.470Z,8.18
2022-11-26T09:37:31.673Z,8.18
2022-11-26T09:38:35.862Z,8.18
2022-11-26T09:39:40.126Z,8.18
2022-11-26T09:40:44.348Z,8.18
2022-11-26T09:41:48.547Z,8.18
2022-11-26T09:42:52.659Z,8.18
2022-11-26T09:43:56.921Z,8.16
2022-11-26T09:45:01.156Z,8.15
2022-11-26T09:46:05.513Z,8.13
2022-11-26T09:47:12.591Z,8.13
2022-11-26T09:48:13.761Z,8.13
2022-11-26T09:49:18.063Z,8.13
2022-11-26T09:50:22.272Z,8.14
2022-11-26T09:51:26.326Z,8.13
2022-11-26T09:52:30.542Z,8.12
2022-11-26T09:53:34.830Z,8.10
2022-11-26T09:54:39.487Z,8.08
2022-11-26T09:55:43.287Z,8.07
2022-11-26T09:56:47.414Z,8.08
2022-11-26T09:57:51.591Z,8.08
2022-11-26T09:58:55.778Z,8.09
2022-11-26T10:00:00.005Z,8.09
2022-11-26T10:01:04.221Z,8.10
2022-11-26T10:02:08.370Z,8.11
2022-11-26T10:03:12.517Z,8.12
2022-11-26T10:04:16.740Z,8.11
2022-11-26T10:05:21.606Z,8.11
2022-11-26T10:06:25.145Z,8.11
2022-11-26T10:07:29.368Z,8.10
2022-11-26T10:08:33.481Z,8.09
2022-11-26T10:09:37.713Z,8.10
2022-11-26T10:10:41.787Z,8.11
2022-11-26T10:11:46.134Z,8.10
2022-11-26T10:13:17.201Z,8.10
2022-11-26T10:13:54.498Z,8.10
2022-11-26T10:14:58.710Z,8.08
2022-11-26T10:16:02.870Z,8.06
2022-11-26T10:17:07.054Z,8.06
2022-11-26T10:18:11.268Z,8.05
2022-11-26T10:19:15.571Z,8.06
2022-11-26T10:20:19.700Z,8.07
2022-11-26T10:21:37.740Z,8.09
2022-11-26T10:22:28.069Z,8.11
2022-11-26T10:23:35.285Z,8.11
2022-11-26T10:24:39.055Z,8.09
2022-11-26T10:25:42.769Z,8.09
2022-11-26T10:26:47.045Z,8.09
2022-11-26T10:27:51.262Z,8.08
2022-11-26T10:28:55.533Z,8.07
2022-11-26T10:29:59.722Z,8.09
2022-11-26T10:31:04.013Z,8.11
2022-11-26T10:32:08.218Z,8.13
2022-11-26T10:33:12.464Z,8.14
2022-11-26T10:34:16.717Z,8.15
2022-11-26T10:35:20.939Z,8.17
2022-11-26T10:36:25.118Z,8.17
2022-11-26T10:37:29.343Z,8.18
2022-11-26T10:38:33.600Z,8.17
2022-11-26T10:39:37.872Z,8.16
2022-11-26T10:40:42.104Z,8.16
2022-11-26T10:41:46.268Z,8.17
2022-11-26T10:42:50.557Z,8.18
2022-11-26T10:43:54.765Z,8.19
2022-11-26T10:44:59.004Z,8.20
2022-11-26T10:46:03.354Z,8.22
2022-11-26T10:47:07.457Z,8.24
2022-11-26T10:48:11.750Z,8.25
2022-11-26T10:49:15.972Z,8.26
2022-11-26T10:50:46.222Z,8.24
2022-11-26T10:51:26.593Z,8.24
2022-11-26T10:52:28.700Z,8.25
2022-11-26T10:53:33.003Z,8.27
2022-11-26T10:54:37.648Z,8.26
2022-11-26T10:55:41.412Z,8.27
2022-11-26T10:56:45.649Z,8.27
2022-11-26T10:57:49.789Z,8.27
2022-11-26T10:58:53.959Z,8.28
2022-11-26T10:59:58.276Z,8.29
2022-11-26T11:01:02.471Z,8.30
2022-11-26T11:02:06.820Z,8.31
2022-11-26T11:03:10.958Z,8.32
2022-11-26T11:04:15.087Z,8.33
2022-11-26T11:05:19.281Z,8.35
2022-11-26T11:06:23.545Z,8.36
2022-11-26T11:07:27.800Z,8.37
2022-11-26T11:08:31.982Z,8.37
2022-11-26T11:09:36.173Z,8.35
2022-11-26T11:10:40.419Z,8.35
2022-11-26T11:11:44.683Z,8.35
2022-11-26T11:12:48.826Z,8.35
2022-11-26T11:13:53.132Z,8.36
2022-11-26T11:14:57.475Z,8.35
2022-11-26T11:16:01.749Z,8.34
2022-11-26T11:17:05.955Z,8.34
2022-11-26T11:18:10.209Z,8.33
2022-11-26T11:19:14.461Z,8.33
2022-11-26T11:20:18.704Z,8.33
2022-11-26T11:21:22.862Z,8.34
2022-11-26T11:22:27.112Z,8.35
2022-11-26T11:24:00.225Z,8.36
2022-11-26T11:24:35.668Z,8.35
2022-11-26T11:25:39.953Z,8.33
2022-11-26T11:26:44.181Z,8.33
2022-11-26T11:27:48.358Z,8.34
2022-11-26T11:28:52.553Z,8.34
2022-11-26T11:29:56.880Z,8.34
2022-11-26T11:31:01.123Z,8.35
2022-11-26T11:32:05.425Z,8.34
2022-11-26T11:33:09.625Z,8.34
2022-11-26T11:34:13.763Z,8.34
2022-11-26T11:35:17.976Z,8.34
2022-11-26T11:36:22.309Z,8.32
2022-11-26T11:37:26.450Z,8.31
2022-11-26T11:38:30.663Z,8.29
2022-11-26T11:39:34.976Z,8.29
2022-11-26T11:40:39.200Z,8.29
2022-11-26T11:41:43.521Z,8.31
2022-11-26T11:42:47.725Z,8.32
2022-11-26T11:43:51.972Z,8.34
2022-11-26T11:44:56.230Z,8.35
2022-11-26T11:46:00.545Z,8.35
2022-11-26T11:47:04.649Z,8.36
2022-11-26T11:48:08.979Z,8.36
2022-11-26T11:49:13.192Z,8.36
2022-11-26T11:50:17.491Z,8.35
2022-11-26T11:51:21.626Z,8.36
2022-11-26T11:52:25.838Z,8.36
2022-11-26T11:53:30.127Z,8.36
2022-11-26T11:54:34.398Z,8.37
2022-11-26T11:55:38.646Z,8.37
2022-11-26T11:56:42.923Z,8.38
2022-11-26T11:57:47.119Z,8.40
2022-11-26T11:58:51.391Z,8.42
2022-11-26T11:59:55.661Z,8.43
2022-11-26T12:00:59.978Z,8.45
2022-11-26T12:02:04.146Z,8.47
2022-11-26T12:03:10.508Z,8.48
2022-11-26T12:04:17.993Z,8.49
2022-11-26T12:05:16.932Z,8.50
2022-11-26T12:06:21.138Z,8.51
2022-11-26T12:07:25.579Z,8.53
2022-11-26T12:08:29.675Z,8.54
2022-11-26T12:09:34.003Z,8.56
2022-11-26T12:10:38.271Z,8.57
2022-11-26T12:11:42.517Z,8.58
2022-11-26T12:12:46.679Z,8.59
2022-11-26T12:13:51.028Z,8.60
2022-11-26T12:14:55.218Z,8.60
2022-11-26T12:15:59.482Z,8.61
2022-11-26T12:17:03.813Z,8.62
2022-11-26T12:18:08.017Z,8.64
2022-11-26T12:19:12.188Z,8.64
2022-11-26T12:20:16.400Z,8.64
2022-11-26T12:21:20.747Z,8.64
2022-11-26T12:22:24.989Z,8.63
2022-11-26T12:23:29.228Z,8.62
2022-11-26T12:24:33.493Z,8.62
2022-11-26T12:25:37.780Z,8.61
2022-11-26T12:26:41.895Z,8.61
2022-11-26T12:27:46.211Z,8.62
2022-11-26T12:28:51.617Z,8.62
2022-11-26T12:29:54.727Z,8.61
2022-11-26T12:30:58.941Z,8.62
2022-11-26T12:32:03.289Z,8.64
2022-11-26T12:33:07.487Z,8.64
2022-11-26T12:34:11.744Z,8.64
2022-11-26T12:35:16.022Z,8.65
2022-11-26T12:36:20.316Z,8.66
2022-11-26T12:37:24.524Z,8.67
2022-11-26T12:38:28.806Z,8.69
2022-11-26T12:39:32.967Z,8.70
2022-11-26T12:40:37.288Z,8.70
2022-11-26T12:41:41.578Z,8.71
2022-11-26T12:42:45.706Z,8.71
2022-11-26T12:43:50.047Z,8.71
2022-11-26T12:44:54.250Z,8.72
2022-11-26T12:45:58.586Z,8.72
2022-11-26T12:47:02.737Z,8.72
2022-11-26T12:48:07.022Z,8.72
2022-11-26T12:49:11.313Z,8.72
2022-11-26T12:50:15.614Z,8.72
2022-11-26T12:51:19.823Z,8.72
2022-11-26T12:52:24.068Z,8.72
2022-11-26T12:53:28.307Z,8.72
2022-11-26T12:54:32.575Z,8.71
2022-11-26T12:55:36.855Z,8.71
2022-11-26T12:56:41.119Z,8.71
2022-11-26T12:57:45.377Z,8.71
2022-11-26T12:58:49.527Z,8.70
2022-11-26T12:59:53.723Z,8.70
2022-11-26T13:00:57.887Z,8.70
2022-11-26T13:02:02.354Z,8.69
2022-11-26T13:03:06.389Z,8.68
2022-11-26T13:04:38.911Z,8.68
2022-11-26T13:05:14.865Z,8.67
2022-11-26T13:06:19.209Z,8.66
2022-11-26T13:07:23.560Z,8.66
2022-11-26T13:08:27.784Z,8.65
2022-11-26T13:09:31.949Z,8.64
2022-11-26T13:10:36.255Z,8.63
2022-11-26T13:11:40.562Z,8.62
2022-11-26T13:12:44.695Z,8.62
2022-11-26T13:13:48.977Z,8.61
2022-11-26T13:14:53.225Z,8.61
2022-11-26T13:15:57.492Z,8.61
2022-11-26T13:17:01.718Z,8.61
2022-11-26T13:18:05.938Z,8.61
2022-11-26T13:19:10.212Z,8.61
2022-11-26T13:20:14.458Z,8.61
2022-11-26T13:21:18.719Z,8.61
2022-11-26T13:22:22.874Z,8.61
2022-11-26T13:23:27.149Z,8.62
2022-11-26T13:24:31.289Z,8.63
2022-11-26T13:25:35.606Z,8.64
2022-11-26T13:26:39.862Z,8.63
2022-11-26T13:27:44.000Z,8.61
2022-11-26T13:28:48.322Z,8.61
2022-11-26T13:29:52.503Z,8.62
2022-11-26T13:30:56.777Z,8.63
2022-11-26T13:32:01.132Z,8.64
2022-11-26T13:33:05.236Z,8.65
2022-11-26T13:34:09.577Z,8.66
2022-11-26T13:35:13.806Z,8.68
2022-11-26T13:36:17.963Z,8.68
2022-11-26T13:37:22.182Z,8.70
2022-11-26T13:38:26.479Z,8.71
2022-11-26T13:39:30.784Z,8.71
2022-11-26T13:40:34.919Z,8.72
2022-11-26T13:41:39.270Z,8.73
2022-11-26T13:42:43.427Z,8.73
2022-11-26T13:43:47.668Z,8.73
2022-11-26T13:44:52.006Z,8.73
2022-11-26T13:45:56.350Z,8.73
2022-11-26T13:47:00.544Z,8.73
2022-11-26T13:48:04.776Z,8.73
2022-11-26T13:49:09.008Z,8.73
2022-11-26T13:50:13.223Z,8.73
2022-11-26T13:51:17.354Z,8.73
2022-11-26T13:52:21.707Z,8.72
2022-11-26T13:53:28.954Z,8.73
2022-11-26T13:54:32.264Z,8.73
2022-11-26T13:55:36.519Z,8.73
2022-11-26T13:56:40.804Z,8.73
2022-11-26T13:57:44.922Z,8.73
2022-11-26T13:58:49.258Z,8.73
2022-11-26T13:59:53.404Z,8.73
2022-11-26T14:00:57.756Z,8.73
2022-11-26T14:02:02.047Z,8.73
2022-11-26T14:03:06.203Z,8.73
2022-11-26T14:04:10.453Z,8.73
2022-11-26T14:05:14.580Z,8.73
2022-11-26T14:06:18.817Z,8.73
2022-11-26T14:07:23.107Z,8.73
2022-11-26T14:08:27.321Z,8.72
2022-11-26T14:09:31.560Z,8.72
2022-11-26T14:10:35.728Z,8.72
2022-11-26T14:11:40.039Z,8.72
2022-11-26T14:12:44.290Z,8.72
2022-11-26T14:13:48.465Z,8.72
2022-11-26T14:14:52.791Z,8.72